Pagrindinis puslapis
METAR-TAF:

METAR-TAF

Oro uostai :

Berlyno Brandenburgo tarptautinis oro uostas

Berlynas, Vokietija

platuma: 52-23N, ilguma: 013-31E, Aukštis: 47 m

Dabartinis oras

Ataskaita buvo paskelbta 39 minutes, ne 12:50 UTC
Vėjas 14 kt iš Vakarų
Temperatūra 21°C
Drėgmė 43%
Slėgis 1011 hPa
Matomumas 10 km arba daugiau
nėra debesų žemiau 1500 m ir nėra kamuolinių lietaus debesų

METAR: EDDB 021250Z 26014KT CAVOK 21/08 Q1011 TEMPO 27015G25KT

Laikas: 15:29 (13:29 UTC)

Prognozė

Ataskaita buvo paskelbta 2 valandos ir 29 minutes, ne 11:00 UTC
Prognozė galioja nuo 02 metu 12 UTC su 03 metu 12 UTC
Vėjas 12 kt iš Vakarų
Matomumas 10 km arba daugiau
Išsisklaidę debesys ne aukštis 3500 ft
Laikinai
nuo 02 metu 12 UTC su 02 metu 16 UTC
Vėjas 15 kt iš Vakarų su gūsio iki 25 kt
Tapsmas
nuo 02 metu 16 UTC su 02 metu 19 UTC
Vėjas 5 kt iš Vakarų/Pietvakarių

TAF: EDDB 021100Z 0212/0312 27012KT 9999 SCT035 TEMPO 0212/0216 27015G25KT BECMG 0216/0219 25005KT

Orai ataskaitas ir orų prognozės (METAR, TAF).

turimą stotys yra geltonos ir raudonos taškus žemėlapyje.

Perkelti pele per norėdami pamatyti stoties vardą.

Tada spustelėkite, norėdami matyti oro stebėjimo ir prognozės.

Norėdami pakeisti žemėlapį: spustelėkite ant žalios mygtukų su juodo kryžiaus žemyn,; žalią mygtuką su brūkšneliu, jei norite nutolinti; arba žalių rodyklių gretimoms žemėlapius.


METAR-TAF: